Aeroporto :
LOGIN :

Iscrizione | Disclaimer

   EN    FR    IT 

 










Sommario :    VFR   VFR Marginale   IFR   IFR Intensivo   IFR Molto Intensivo
Visibilità : 
Base nubi : 
>= 8 km
>= 3000ft
5 / 8 km
1000 / 3000 ft
1500m / 5 km
500 / 1000 ft
800 / 1500m
200 / 500 ft
< 800m
< 200 ft
Simboli :   Temporali  Nebbia  Neve Forte  Precipitazioni Forti  Vento > 20 kt
SIGMETs :   Varie  Temporali  Ghiacco  Turbolenza  Onda orograficha  Ceneri Vulcaniche






- Altitudine del aeroporto : 74 ft
- Codice IATA : LRH


LFBH - La Rochelle Ile de Ré

ULTIMO METAR :
  • 241400Z AUTO 14008KT CAVOK 12/08 Q1019 NOSIG

METARs OBSOLETI :
  • 241330Z AUTO 13008KT CAVOK 12/07 Q1019 NOSIG
  • 241300Z AUTO 15008KT 110V170 CAVOK 12/07 Q1020 NOSIG
  • 241230Z AUTO 14010KT CAVOK 12/07 Q1020 NOSIG
  • 241200Z AUTO 15010KT CAVOK 12/06 Q1020 NOSIG
  • 241130Z AUTO 14008KT CAVOK 12/06 Q1021 NOSIG
  • 241100Z AUTO 15007KT 9999 FEW001 SCT110 11/06 Q1021 NOSIG

TAF TAF LFBH
Valido dal 24 a 12 ore il 25 a 12 ore UTC


241100Z 2412/2512 15010KT CAVOK
PROB30
TEMPO 2416/2418 4000 SHRA SCT040TCU
BECMG 2503/2505 3000 BR BKN005
PROB40 2505/2512 VRB02KT 0500 FG VV///
ATIS : +33 5 46 00 13 92



MetMap, La meteo Aeronautica in un colpo d'occhio ! - Copyright ORBIFLY Dicembre 2007 - Disclaimer

ORBIFLY MET'MAP TEAM :

Programmazione e sviluppo : Alexandra Zaïnal
Concezione : Baudouin d'Aumeries
Aiuto per la programmazione : Marc-Olivier Méhu
Supporto tecnico e logistico : Manuel Goepfert
Aiuto per la traduzione : Arnaldo La Scala

Contatto : metmap@orbifly.com




FONTI E CREDITI :

   NOAA